sensor_id;sensor_type;location;lat;lon;timestamp;P1;durP1;ratioP1;P2;durP2;ratioP2
3006;SDS011;1513;47.650;10.720;2022-07-17T00:00:14;4.77;;;4.33;;
3006;SDS011;1513;47.650;10.720;2022-07-17T00:03:18;4.50;;;4.10;;
3006;SDS011;1513;47.650;10.720;2022-07-17T00:06:22;9.40;;;4.50;;
3006;SDS011;1513;47.650;10.720;2022-07-17T00:09:25;14.73;;;4.40;;
3006;SDS011;1513;47.650;10.720;2022-07-17T00:12:29;10.30;;;4.63;;
3006;SDS011;1513;47.650;10.720;2022-07-17T00:15:32;5.70;;;4.57;;
3006;SDS011;1513;47.650;10.720;2022-07-17T00:18:36;7.50;;;4.90;;
3006;SDS011;1513;47.650;10.720;2022-07-17T00:21:40;10.10;;;4.47;;
3006;SDS011;1513;47.650;10.720;2022-07-17T00:24:45;6.10;;;4.73;;
3006;SDS011;1513;47.650;10.720;2022-07-17T00:27:48;8.90;;;4.63;;
3006;SDS011;1513;47.650;10.720;2022-07-17T00:30:52;5.00;;;4.50;;
3006;SDS011;1513;47.650;10.720;2022-07-17T00:33:55;5.53;;;4.57;;
3006;SDS011;1513;47.650;10.720;2022-07-17T00:36:59;9.90;;;5.27;;
3006;SDS011;1513;47.650;10.720;2022-07-17T00:40:03;7.67;;;5.07;;
3006;SDS011;1513;47.650;10.720;2022-07-17T00:43:06;8.03;;;5.70;;
3006;SDS011;1513;47.650;10.720;2022-07-17T00:46:10;8.67;;;5.60;;
3006;SDS011;1513;47.650;10.720;2022-07-17T00:49:13;9.70;;;4.93;;
3006;SDS011;1513;47.650;10.720;2022-07-17T00:52:17;10.80;;;5.83;;
3006;SDS011;1513;47.650;10.720;2022-07-17T00:55:21;6.90;;;5.53;;
3006;SDS011;1513;47.650;10.720;2022-07-17T00:58:25;12.87;;;6.43;;
3006;SDS011;1513;47.650;10.720;2022-07-17T01:01:29;15.10;;;7.20;;
3006;SDS011;1513;47.650;10.720;2022-07-17T01:04:34;10.60;;;6.30;;
3006;SDS011;1513;47.650;10.720;2022-07-17T01:07:39;10.93;;;5.67;;
3006;SDS011;1513;47.650;10.720;2022-07-17T01:10:42;7.97;;;5.27;;
3006;SDS011;1513;47.650;10.720;2022-07-17T01:13:46;5.93;;;4.33;;
3006;SDS011;1513;47.650;10.720;2022-07-17T01:16:50;6.27;;;4.60;;
3006;SDS011;1513;47.650;10.720;2022-07-17T01:19:55;6.90;;;4.70;;
3006;SDS011;1513;47.650;10.720;2022-07-17T01:22:59;6.83;;;4.90;;
3006;SDS011;1513;47.650;10.720;2022-07-17T01:26:02;4.73;;;4.30;;
3006;SDS011;1513;47.650;10.720;2022-07-17T01:29:05;6.10;;;4.20;;
3006;SDS011;1513;47.650;10.720;2022-07-17T01:32:10;6.60;;;4.60;;
3006;SDS011;1513;47.650;10.720;2022-07-17T01:35:14;7.00;;;4.80;;
3006;SDS011;1513;47.650;10.720;2022-07-17T01:38:18;7.60;;;4.80;;
3006;SDS011;1513;47.650;10.720;2022-07-17T01:41:22;6.47;;;4.70;;
3006;SDS011;1513;47.650;10.720;2022-07-17T01:44:26;5.47;;;4.33;;
3006;SDS011;1513;47.650;10.720;2022-07-17T01:47:29;5.80;;;4.80;;
3006;SDS011;1513;47.650;10.720;2022-07-17T01:50:33;6.47;;;4.00;;
3006;SDS011;1513;47.650;10.720;2022-07-17T01:53:36;6.53;;;4.80;;
3006;SDS011;1513;47.650;10.720;2022-07-17T01:56:40;6.90;;;4.50;;
3006;SDS011;1513;47.650;10.720;2022-07-17T01:59:43;6.93;;;5.33;;
3006;SDS011;1513;47.650;10.720;2022-07-17T02:02:47;4.43;;;4.00;;
3006;SDS011;1513;47.650;10.720;2022-07-17T02:05:50;9.87;;;4.70;;
3006;SDS011;1513;47.650;10.720;2022-07-17T02:08:53;6.97;;;5.03;;
3006;SDS011;1513;47.650;10.720;2022-07-17T02:11:56;6.67;;;4.23;;
3006;SDS011;1513;47.650;10.720;2022-07-17T02:15:00;5.33;;;4.43;;
3006;SDS011;1513;47.650;10.720;2022-07-17T02:18:04;6.07;;;4.57;;
3006;SDS011;1513;47.650;10.720;2022-07-17T02:21:08;4.50;;;4.10;;
3006;SDS011;1513;47.650;10.720;2022-07-17T02:24:12;9.17;;;4.37;;
3006;SDS011;1513;47.650;10.720;2022-07-17T02:27:16;5.70;;;4.50;;
3006;SDS011;1513;47.650;10.720;2022-07-17T02:30:19;4.37;;;3.53;;
3006;SDS011;1513;47.650;10.720;2022-07-17T02:33:22;4.63;;;4.00;;
3006;SDS011;1513;47.650;10.720;2022-07-17T02:36:26;8.27;;;5.00;;
3006;SDS011;1513;47.650;10.720;2022-07-17T02:39:29;7.50;;;4.20;;
3006;SDS011;1513;47.650;10.720;2022-07-17T02:42:33;6.80;;;4.30;;
3006;SDS011;1513;47.650;10.720;2022-07-17T02:45:36;6.33;;;4.27;;
3006;SDS011;1513;47.650;10.720;2022-07-17T02:48:40;9.20;;;4.43;;
3006;SDS011;1513;47.650;10.720;2022-07-17T02:51:44;5.27;;;4.00;;
3006;SDS011;1513;47.650;10.720;2022-07-17T02:54:48;4.80;;;4.40;;
3006;SDS011;1513;47.650;10.720;2022-07-17T02:57:51;7.93;;;3.90;;
3006;SDS011;1513;47.650;10.720;2022-07-17T03:00:55;5.40;;;4.20;;
3006;SDS011;1513;47.650;10.720;2022-07-17T03:03:59;5.97;;;4.63;;
3006;SDS011;1513;47.650;10.720;2022-07-17T03:07:01;4.07;;;3.30;;
3006;SDS011;1513;47.650;10.720;2022-07-17T03:10:05;7.97;;;5.20;;
3006;SDS011;1513;47.650;10.720;2022-07-17T03:13:09;10.23;;;6.83;;
3006;SDS011;1513;47.650;10.720;2022-07-17T03:16:13;6.93;;;4.77;;
3006;SDS011;1513;47.650;10.720;2022-07-17T03:19:16;4.00;;;3.60;;
3006;SDS011;1513;47.650;10.720;2022-07-17T03:22:19;10.37;;;4.37;;
3006;SDS011;1513;47.650;10.720;2022-07-17T03:25:22;6.67;;;4.83;;
3006;SDS011;1513;47.650;10.720;2022-07-17T03:28:26;7.30;;;4.80;;
3006;SDS011;1513;47.650;10.720;2022-07-17T03:31:29;4.53;;;4.07;;
3006;SDS011;1513;47.650;10.720;2022-07-17T03:34:33;7.20;;;5.30;;
3006;SDS011;1513;47.650;10.720;2022-07-17T03:37:36;11.00;;;5.70;;
3006;SDS011;1513;47.650;10.720;2022-07-17T03:40:40;7.83;;;5.10;;
3006;SDS011;1513;47.650;10.720;2022-07-17T03:43:43;8.70;;;5.10;;
3006;SDS011;1513;47.650;10.720;2022-07-17T03:46:46;6.80;;;5.07;;
3006;SDS011;1513;47.650;10.720;2022-07-17T03:49:49;6.37;;;5.00;;
3006;SDS011;1513;47.650;10.720;2022-07-17T03:52:52;8.23;;;5.17;;
3006;SDS011;1513;47.650;10.720;2022-07-17T03:55:55;9.50;;;5.10;;
3006;SDS011;1513;47.650;10.720;2022-07-17T03:58:59;6.43;;;4.70;;
3006;SDS011;1513;47.650;10.720;2022-07-17T04:02:03;5.70;;;4.10;;
3006;SDS011;1513;47.650;10.720;2022-07-17T04:05:06;6.13;;;3.83;;
3006;SDS011;1513;47.650;10.720;2022-07-17T04:08:12;4.70;;;3.67;;
3006;SDS011;1513;47.650;10.720;2022-07-17T04:11:17;5.20;;;3.97;;
3006;SDS011;1513;47.650;10.720;2022-07-17T04:14:23;5.50;;;4.60;;
3006;SDS011;1513;47.650;10.720;2022-07-17T04:17:26;7.97;;;5.00;;
3006;SDS011;1513;47.650;10.720;2022-07-17T04:20:29;4.63;;;4.13;;
3006;SDS011;1513;47.650;10.720;2022-07-17T04:23:33;6.80;;;4.00;;
3006;SDS011;1513;47.650;10.720;2022-07-17T04:26:37;4.80;;;4.30;;
3006;SDS011;1513;47.650;10.720;2022-07-17T04:29:40;4.83;;;4.30;;
3006;SDS011;1513;47.650;10.720;2022-07-17T04:32:43;6.60;;;4.27;;
3006;SDS011;1513;47.650;10.720;2022-07-17T04:35:47;4.63;;;4.23;;
3006;SDS011;1513;47.650;10.720;2022-07-17T04:38:50;5.97;;;4.40;;
3006;SDS011;1513;47.650;10.720;2022-07-17T04:41:53;7.27;;;3.60;;
3006;SDS011;1513;47.650;10.720;2022-07-17T04:44:56;5.07;;;3.80;;
3006;SDS011;1513;47.650;10.720;2022-07-17T04:48:00;14.33;;;5.00;;
3006;SDS011;1513;47.650;10.720;2022-07-17T04:51:04;4.97;;;4.03;;
3006;SDS011;1513;47.650;10.720;2022-07-17T04:54:08;4.40;;;3.63;;
3006;SDS011;1513;47.650;10.720;2022-07-17T04:57:11;5.63;;;3.90;;
3006;SDS011;1513;47.650;10.720;2022-07-17T05:00:15;4.20;;;3.90;;
3006;SDS011;1513;47.650;10.720;2022-07-17T05:03:19;4.10;;;3.60;;
3006;SDS011;1513;47.650;10.720;2022-07-17T05:06:22;7.50;;;3.37;;
3006;SDS011;1513;47.650;10.720;2022-07-17T05:09:26;4.33;;;3.60;;
3006;SDS011;1513;47.650;10.720;2022-07-17T05:12:29;4.53;;;4.13;;
3006;SDS011;1513;47.650;10.720;2022-07-17T05:15:33;4.33;;;3.93;;
3006;SDS011;1513;47.650;10.720;2022-07-17T05:18:37;3.33;;;3.10;;
3006;SDS011;1513;47.650;10.720;2022-07-17T05:21:41;3.80;;;3.37;;
3006;SDS011;1513;47.650;10.720;2022-07-17T05:24:45;4.20;;;3.90;;
3006;SDS011;1513;47.650;10.720;2022-07-17T05:27:48;6.30;;;3.47;;
3006;SDS011;1513;47.650;10.720;2022-07-17T05:30:51;3.80;;;3.50;;
3006;SDS011;1513;47.650;10.720;2022-07-17T05:33:54;5.40;;;4.23;;
3006;SDS011;1513;47.650;10.720;2022-07-17T05:36:58;5.40;;;4.03;;
3006;SDS011;1513;47.650;10.720;2022-07-17T05:40:01;9.17;;;4.43;;
3006;SDS011;1513;47.650;10.720;2022-07-17T05:43:06;4.17;;;3.80;;
3006;SDS011;1513;47.650;10.720;2022-07-17T05:46:09;6.60;;;4.40;;
3006;SDS011;1513;47.650;10.720;2022-07-17T05:49:12;4.13;;;3.70;;
3006;SDS011;1513;47.650;10.720;2022-07-17T05:52:16;4.07;;;3.77;;
3006;SDS011;1513;47.650;10.720;2022-07-17T05:55:19;4.33;;;3.93;;
3006;SDS011;1513;47.650;10.720;2022-07-17T05:58:23;4.43;;;3.80;;
3006;SDS011;1513;47.650;10.720;2022-07-17T06:01:26;4.20;;;3.70;;
3006;SDS011;1513;47.650;10.720;2022-07-17T06:04:30;4.13;;;3.73;;
3006;SDS011;1513;47.650;10.720;2022-07-17T06:07:33;4.25;;;3.90;;
3006;SDS011;1513;47.650;10.720;2022-07-17T06:10:37;4.10;;;3.70;;
3006;SDS011;1513;47.650;10.720;2022-07-17T06:13:40;4.40;;;4.05;;
3006;SDS011;1513;47.650;10.720;2022-07-17T06:16:44;6.15;;;4.07;;
3006;SDS011;1513;47.650;10.720;2022-07-17T06:19:47;3.97;;;3.63;;
3006;SDS011;1513;47.650;10.720;2022-07-17T06:22:54;4.38;;;3.60;;
3006;SDS011;1513;47.650;10.720;2022-07-17T06:25:58;4.00;;;3.63;;
3006;SDS011;1513;47.650;10.720;2022-07-17T06:29:01;4.30;;;3.88;;
3006;SDS011;1513;47.650;10.720;2022-07-17T06:32:05;3.72;;;3.40;;
3006;SDS011;1513;47.650;10.720;2022-07-17T06:35:11;4.15;;;3.85;;
3006;SDS011;1513;47.650;10.720;2022-07-17T06:38:15;4.18;;;3.80;;
3006;SDS011;1513;47.650;10.720;2022-07-17T06:41:18;6.43;;;3.90;;
3006;SDS011;1513;47.650;10.720;2022-07-17T06:44:21;5.22;;;4.07;;
3006;SDS011;1513;47.650;10.720;2022-07-17T06:47:25;3.90;;;3.65;;
3006;SDS011;1513;47.650;10.720;2022-07-17T06:50:28;4.10;;;3.80;;
3006;SDS011;1513;47.650;10.720;2022-07-17T06:53:31;3.28;;;3.08;;
3006;SDS011;1513;47.650;10.720;2022-07-17T06:56:35;4.28;;;3.83;;
3006;SDS011;1513;47.650;10.720;2022-07-17T06:59:39;3.50;;;3.30;;
3006;SDS011;1513;47.650;10.720;2022-07-17T07:02:42;5.38;;;3.15;;
3006;SDS011;1513;47.650;10.720;2022-07-17T07:05:46;4.55;;;3.38;;
3006;SDS011;1513;47.650;10.720;2022-07-17T07:08:50;3.75;;;3.45;;
3006;SDS011;1513;47.650;10.720;2022-07-17T07:11:53;4.13;;;3.83;;
3006;SDS011;1513;47.650;10.720;2022-07-17T07:14:57;3.65;;;3.45;;
3006;SDS011;1513;47.650;10.720;2022-07-17T07:18:00;3.20;;;2.97;;
3006;SDS011;1513;47.650;10.720;2022-07-17T07:21:04;7.05;;;3.30;;
3006;SDS011;1513;47.650;10.720;2022-07-17T07:24:07;3.50;;;3.20;;
3006;SDS011;1513;47.650;10.720;2022-07-17T07:27:11;4.03;;;3.42;;
3006;SDS011;1513;47.650;10.720;2022-07-17T07:30:14;6.93;;;3.42;;
3006;SDS011;1513;47.650;10.720;2022-07-17T07:33:18;4.05;;;3.38;;
3006;SDS011;1513;47.650;10.720;2022-07-17T07:36:22;3.53;;;2.83;;
3006;SDS011;1513;47.650;10.720;2022-07-17T07:39:25;2.90;;;2.70;;
3006;SDS011;1513;47.650;10.720;2022-07-17T07:42:29;3.50;;;3.20;;
3006;SDS011;1513;47.650;10.720;2022-07-17T07:45:32;3.80;;;2.72;;
3006;SDS011;1513;47.650;10.720;2022-07-17T07:48:36;4.68;;;3.00;;
3006;SDS011;1513;47.650;10.720;2022-07-17T07:51:40;4.15;;;3.30;;
3006;SDS011;1513;47.650;10.720;2022-07-17T07:54:44;6.40;;;2.95;;
3006;SDS011;1513;47.650;10.720;2022-07-17T07:57:48;2.83;;;2.60;;
3006;SDS011;1513;47.650;10.720;2022-07-17T08:00:52;4.17;;;3.00;;
3006;SDS011;1513;47.650;10.720;2022-07-17T08:03:55;3.30;;;3.10;;
3006;SDS011;1513;47.650;10.720;2022-07-17T08:06:59;5.03;;;3.17;;
3006;SDS011;1513;47.650;10.720;2022-07-17T08:10:03;4.83;;;3.47;;
3006;SDS011;1513;47.650;10.720;2022-07-17T08:13:07;3.17;;;2.97;;
3006;SDS011;1513;47.650;10.720;2022-07-17T08:16:10;2.93;;;2.73;;
3006;SDS011;1513;47.650;10.720;2022-07-17T08:19:14;3.10;;;2.90;;
3006;SDS011;1513;47.650;10.720;2022-07-17T08:22:17;3.73;;;3.43;;
3006;SDS011;1513;47.650;10.720;2022-07-17T08:25:21;4.00;;;3.40;;
3006;SDS011;1513;47.650;10.720;2022-07-17T08:28:24;5.00;;;3.50;;
3006;SDS011;1513;47.650;10.720;2022-07-17T08:31:28;3.97;;;2.93;;
3006;SDS011;1513;47.650;10.720;2022-07-17T08:34:32;5.27;;;3.23;;
3006;SDS011;1513;47.650;10.720;2022-07-17T08:37:45;4.10;;;3.37;;
3006;SDS011;1513;47.650;10.720;2022-07-17T08:40:50;3.30;;;3.00;;
3006;SDS011;1513;47.650;10.720;2022-07-17T08:43:56;3.47;;;3.17;;
3006;SDS011;1513;47.650;10.720;2022-07-17T08:47:00;4.47;;;3.23;;
3006;SDS011;1513;47.650;10.720;2022-07-17T08:50:05;3.77;;;3.43;;
3006;SDS011;1513;47.650;10.720;2022-07-17T08:53:08;9.10;;;3.20;;
3006;SDS011;1513;47.650;10.720;2022-07-17T08:56:12;3.63;;;3.27;;
3006;SDS011;1513;47.650;10.720;2022-07-17T08:59:16;5.23;;;4.03;;
3006;SDS011;1513;47.650;10.720;2022-07-17T09:02:19;3.53;;;3.20;;
3006;SDS011;1513;47.650;10.720;2022-07-17T09:05:23;3.53;;;3.23;;
3006;SDS011;1513;47.650;10.720;2022-07-17T09:08:29;3.50;;;2.90;;
3006;SDS011;1513;47.650;10.720;2022-07-17T09:11:49;3.07;;;2.77;;
3006;SDS011;1513;47.650;10.720;2022-07-17T09:14:54;3.20;;;3.00;;
3006;SDS011;1513;47.650;10.720;2022-07-17T09:17:58;3.00;;;2.70;;
3006;SDS011;1513;47.650;10.720;2022-07-17T09:21:01;3.77;;;3.00;;
3006;SDS011;1513;47.650;10.720;2022-07-17T09:24:05;3.20;;;3.00;;
3006;SDS011;1513;47.650;10.720;2022-07-17T09:27:10;5.13;;;3.00;;
3006;SDS011;1513;47.650;10.720;2022-07-17T09:30:16;6.97;;;3.57;;
3006;SDS011;1513;47.650;10.720;2022-07-17T09:33:29;9.20;;;3.30;;
3006;SDS011;1513;47.650;10.720;2022-07-17T09:36:36;3.23;;;2.93;;
3006;SDS011;1513;47.650;10.720;2022-07-17T09:39:39;3.63;;;3.17;;
3006;SDS011;1513;47.650;10.720;2022-07-17T09:42:44;6.60;;;3.57;;
3006;SDS011;1513;47.650;10.720;2022-07-17T09:45:47;3.60;;;3.30;;
3006;SDS011;1513;47.650;10.720;2022-07-17T09:48:56;3.47;;;3.17;;
3006;SDS011;1513;47.650;10.720;2022-07-17T09:52:00;5.90;;;3.30;;
3006;SDS011;1513;47.650;10.720;2022-07-17T09:55:04;3.43;;;3.10;;
3006;SDS011;1513;47.650;10.720;2022-07-17T09:58:08;3.43;;;3.13;;
3006;SDS011;1513;47.650;10.720;2022-07-17T10:01:14;6.00;;;3.40;;
3006;SDS011;1513;47.650;10.720;2022-07-17T10:04:18;3.70;;;3.33;;
3006;SDS011;1513;47.650;10.720;2022-07-17T10:07:22;7.07;;;3.60;;
3006;SDS011;1513;47.650;10.720;2022-07-17T10:10:25;4.50;;;3.53;;
3006;SDS011;1513;47.650;10.720;2022-07-17T10:13:30;3.40;;;3.10;;
3006;SDS011;1513;47.650;10.720;2022-07-17T10:16:34;4.10;;;3.50;;
3006;SDS011;1513;47.650;10.720;2022-07-17T10:19:47;12.00;;;3.70;;
3006;SDS011;1513;47.650;10.720;2022-07-17T10:22:53;3.60;;;2.93;;
3006;SDS011;1513;47.650;10.720;2022-07-17T10:25:57;6.43;;;2.90;;
3006;SDS011;1513;47.650;10.720;2022-07-17T10:29:01;7.60;;;3.47;;
3006;SDS011;1513;47.650;10.720;2022-07-17T10:32:09;5.13;;;3.00;;
3006;SDS011;1513;47.650;10.720;2022-07-17T10:35:17;3.73;;;2.90;;
3006;SDS011;1513;47.650;10.720;2022-07-17T10:38:20;3.77;;;2.70;;
3006;SDS011;1513;47.650;10.720;2022-07-17T10:41:24;6.00;;;3.33;;
3006;SDS011;1513;47.650;10.720;2022-07-17T10:44:29;4.27;;;3.13;;
3006;SDS011;1513;47.650;10.720;2022-07-17T10:50:57;3.40;;;3.20;;
3006;SDS011;1513;47.650;10.720;2022-07-17T10:54:01;3.57;;;3.23;;
3006;SDS011;1513;47.650;10.720;2022-07-17T10:57:04;3.87;;;3.00;;
3006;SDS011;1513;47.650;10.720;2022-07-17T11:00:10;4.00;;;3.30;;
3006;SDS011;1513;47.650;10.720;2022-07-17T11:03:15;5.13;;;3.13;;
3006;SDS011;1513;47.650;10.720;2022-07-17T11:06:19;3.70;;;3.40;;
3006;SDS011;1513;47.650;10.720;2022-07-17T11:09:23;3.40;;;3.10;;
3006;SDS011;1513;47.650;10.720;2022-07-17T11:12:31;3.70;;;3.13;;
3006;SDS011;1513;47.650;10.720;2022-07-17T11:15:39;3.43;;;3.20;;
3006;SDS011;1513;47.650;10.720;2022-07-17T11:18:47;3.60;;;3.40;;
3006;SDS011;1513;47.650;10.720;2022-07-17T11:21:51;3.80;;;3.50;;
3006;SDS011;1513;47.650;10.720;2022-07-17T11:24:55;4.50;;;3.27;;
3006;SDS011;1513;47.650;10.720;2022-07-17T11:27:59;4.07;;;3.67;;
3006;SDS011;1513;47.650;10.720;2022-07-17T11:31:04;3.50;;;3.20;;
3006;SDS011;1513;47.650;10.720;2022-07-17T11:34:19;5.20;;;3.80;;
3006;SDS011;1513;47.650;10.720;2022-07-17T11:37:25;4.73;;;3.90;;
3006;SDS011;1513;47.650;10.720;2022-07-17T11:40:32;4.63;;;3.70;;
3006;SDS011;1513;47.650;10.720;2022-07-17T11:43:39;4.37;;;3.97;;
3006;SDS011;1513;47.650;10.720;2022-07-17T11:46:44;8.30;;;3.43;;
3006;SDS011;1513;47.650;10.720;2022-07-17T11:49:49;10.00;;;4.20;;
3006;SDS011;1513;47.650;10.720;2022-07-17T11:52:52;4.27;;;3.87;;
3006;SDS011;1513;47.650;10.720;2022-07-17T11:55:56;4.20;;;3.83;;
3006;SDS011;1513;47.650;10.720;2022-07-17T11:58:59;3.73;;;3.53;;
3006;SDS011;1513;47.650;10.720;2022-07-17T12:02:10;4.87;;;3.80;;
3006;SDS011;1513;47.650;10.720;2022-07-17T12:05:24;4.80;;;3.20;;
3006;SDS011;1513;47.650;10.720;2022-07-17T12:08:31;4.37;;;4.03;;
3006;SDS011;1513;47.650;10.720;2022-07-17T12:11:45;8.43;;;3.27;;
3006;SDS011;1513;47.650;10.720;2022-07-17T12:14:52;3.77;;;3.47;;
3006;SDS011;1513;47.650;10.720;2022-07-17T12:17:57;9.37;;;3.63;;
3006;SDS011;1513;47.650;10.720;2022-07-17T12:21:02;6.87;;;3.47;;
3006;SDS011;1513;47.650;10.720;2022-07-17T12:24:08;3.90;;;3.60;;
3006;SDS011;1513;47.650;10.720;2022-07-17T12:27:15;7.03;;;3.83;;
3006;SDS011;1513;47.650;10.720;2022-07-17T12:30:19;5.90;;;3.67;;
3006;SDS011;1513;47.650;10.720;2022-07-17T12:33:23;4.60;;;3.40;;
3006;SDS011;1513;47.650;10.720;2022-07-17T12:36:27;7.03;;;4.73;;
3006;SDS011;1513;47.650;10.720;2022-07-17T12:39:31;3.60;;;3.27;;
3006;SDS011;1513;47.650;10.720;2022-07-17T12:42:34;3.53;;;3.33;;
3006;SDS011;1513;47.650;10.720;2022-07-17T12:45:38;3.97;;;3.30;;
3006;SDS011;1513;47.650;10.720;2022-07-17T12:48:42;10.50;;;4.23;;
3006;SDS011;1513;47.650;10.720;2022-07-17T12:51:46;5.00;;;3.87;;
3006;SDS011;1513;47.650;10.720;2022-07-17T12:54:49;4.77;;;3.80;;
3006;SDS011;1513;47.650;10.720;2022-07-17T12:57:53;3.70;;;3.50;;
3006;SDS011;1513;47.650;10.720;2022-07-17T13:00:56;4.33;;;3.90;;
3006;SDS011;1513;47.650;10.720;2022-07-17T13:04:00;6.40;;;3.77;;
3006;SDS011;1513;47.650;10.720;2022-07-17T13:07:04;7.97;;;3.60;;
3006;SDS011;1513;47.650;10.720;2022-07-17T13:10:08;4.10;;;3.80;;
3006;SDS011;1513;47.650;10.720;2022-07-17T13:13:11;5.67;;;3.83;;
3006;SDS011;1513;47.650;10.720;2022-07-17T13:16:15;8.53;;;3.70;;
3006;SDS011;1513;47.650;10.720;2022-07-17T13:19:18;5.50;;;3.43;;
3006;SDS011;1513;47.650;10.720;2022-07-17T13:22:22;9.20;;;3.70;;
3006;SDS011;1513;47.650;10.720;2022-07-17T13:25:25;9.03;;;4.00;;
3006;SDS011;1513;47.650;10.720;2022-07-17T13:28:30;5.17;;;3.63;;
3006;SDS011;1513;47.650;10.720;2022-07-17T13:31:34;4.50;;;3.47;;
3006;SDS011;1513;47.650;10.720;2022-07-17T13:34:38;4.23;;;3.83;;
3006;SDS011;1513;47.650;10.720;2022-07-17T13:37:41;4.30;;;3.90;;
3006;SDS011;1513;47.650;10.720;2022-07-17T13:40:45;3.83;;;3.53;;
3006;SDS011;1513;47.650;10.720;2022-07-17T13:43:48;3.90;;;3.60;;
3006;SDS011;1513;47.650;10.720;2022-07-17T13:46:52;4.00;;;3.60;;
3006;SDS011;1513;47.650;10.720;2022-07-17T13:49:56;3.80;;;3.53;;
3006;SDS011;1513;47.650;10.720;2022-07-17T13:53:00;4.13;;;3.83;;
3006;SDS011;1513;47.650;10.720;2022-07-17T13:56:04;8.93;;;4.10;;
3006;SDS011;1513;47.650;10.720;2022-07-17T13:59:07;4.50;;;4.10;;
3006;SDS011;1513;47.650;10.720;2022-07-17T14:02:11;3.53;;;3.33;;
3006;SDS011;1513;47.650;10.720;2022-07-17T14:05:14;6.00;;;4.07;;
3006;SDS011;1513;47.650;10.720;2022-07-17T14:08:18;3.97;;;3.67;;
3006;SDS011;1513;47.650;10.720;2022-07-17T14:11:21;4.13;;;3.60;;
3006;SDS011;1513;47.650;10.720;2022-07-17T14:14:25;4.33;;;3.93;;
3006;SDS011;1513;47.650;10.720;2022-07-17T14:17:28;4.40;;;4.00;;
3006;SDS011;1513;47.650;10.720;2022-07-17T14:20:32;5.43;;;3.67;;
3006;SDS011;1513;47.650;10.720;2022-07-17T14:23:35;4.80;;;3.80;;
3006;SDS011;1513;47.650;10.720;2022-07-17T14:26:39;4.37;;;4.03;;
3006;SDS011;1513;47.650;10.720;2022-07-17T14:29:44;3.50;;;3.20;;
3006;SDS011;1513;47.650;10.720;2022-07-17T14:32:48;3.80;;;3.50;;
3006;SDS011;1513;47.650;10.720;2022-07-17T14:35:52;5.77;;;4.30;;
3006;SDS011;1513;47.650;10.720;2022-07-17T14:38:55;6.27;;;4.80;;
3006;SDS011;1513;47.650;10.720;2022-07-17T14:41:59;4.90;;;4.10;;
3006;SDS011;1513;47.650;10.720;2022-07-17T14:45:03;6.00;;;3.57;;
3006;SDS011;1513;47.650;10.720;2022-07-17T14:48:06;4.37;;;3.97;;
3006;SDS011;1513;47.650;10.720;2022-07-17T14:51:10;4.43;;;4.13;;
3006;SDS011;1513;47.650;10.720;2022-07-17T14:54:14;10.43;;;3.87;;
3006;SDS011;1513;47.650;10.720;2022-07-17T14:57:18;5.07;;;3.93;;
3006;SDS011;1513;47.650;10.720;2022-07-17T15:00:21;4.23;;;3.83;;
3006;SDS011;1513;47.650;10.720;2022-07-17T15:03:25;4.23;;;3.70;;
3006;SDS011;1513;47.650;10.720;2022-07-17T15:06:28;3.97;;;3.67;;
3006;SDS011;1513;47.650;10.720;2022-07-17T15:09:32;4.63;;;4.23;;
3006;SDS011;1513;47.650;10.720;2022-07-17T15:12:35;7.57;;;3.80;;
3006;SDS011;1513;47.650;10.720;2022-07-17T15:15:39;7.23;;;4.07;;
3006;SDS011;1513;47.650;10.720;2022-07-17T15:18:42;4.67;;;3.80;;
3006;SDS011;1513;47.650;10.720;2022-07-17T15:21:48;6.30;;;4.40;;
3006;SDS011;1513;47.650;10.720;2022-07-17T15:24:53;3.83;;;3.57;;
3006;SDS011;1513;47.650;10.720;2022-07-17T15:27:56;5.10;;;4.63;;
3006;SDS011;1513;47.650;10.720;2022-07-17T15:31:00;4.87;;;4.43;;
3006;SDS011;1513;47.650;10.720;2022-07-17T15:34:03;4.30;;;3.90;;
3006;SDS011;1513;47.650;10.720;2022-07-17T15:37:07;4.27;;;3.97;;
3006;SDS011;1513;47.650;10.720;2022-07-17T15:40:10;4.30;;;4.00;;
3006;SDS011;1513;47.650;10.720;2022-07-17T15:43:14;3.97;;;3.67;;
3006;SDS011;1513;47.650;10.720;2022-07-17T15:46:17;4.90;;;3.53;;
3006;SDS011;1513;47.650;10.720;2022-07-17T15:49:21;3.50;;;3.30;;
3006;SDS011;1513;47.650;10.720;2022-07-17T15:52:26;4.17;;;3.57;;
3006;SDS011;1513;47.650;10.720;2022-07-17T15:55:29;3.53;;;3.23;;
3006;SDS011;1513;47.650;10.720;2022-07-17T15:58:33;11.13;;;3.37;;
3006;SDS011;1513;47.650;10.720;2022-07-17T16:01:36;5.80;;;3.57;;
3006;SDS011;1513;47.650;10.720;2022-07-17T16:04:41;5.77;;;4.57;;
3006;SDS011;1513;47.650;10.720;2022-07-17T16:07:45;6.27;;;5.00;;
3006;SDS011;1513;47.650;10.720;2022-07-17T16:10:49;4.50;;;3.63;;
3006;SDS011;1513;47.650;10.720;2022-07-17T16:13:52;5.47;;;3.30;;
3006;SDS011;1513;47.650;10.720;2022-07-17T16:16:56;6.10;;;3.43;;
3006;SDS011;1513;47.650;10.720;2022-07-17T16:19:59;3.93;;;3.63;;
3006;SDS011;1513;47.650;10.720;2022-07-17T16:23:05;3.90;;;3.50;;
3006;SDS011;1513;47.650;10.720;2022-07-17T16:26:08;6.33;;;3.73;;
3006;SDS011;1513;47.650;10.720;2022-07-17T16:29:12;4.20;;;3.73;;
3006;SDS011;1513;47.650;10.720;2022-07-17T16:32:15;3.90;;;3.70;;
3006;SDS011;1513;47.650;10.720;2022-07-17T16:35:19;7.80;;;4.10;;
3006;SDS011;1513;47.650;10.720;2022-07-17T16:38:22;4.20;;;3.90;;
3006;SDS011;1513;47.650;10.720;2022-07-17T16:41:26;4.93;;;4.50;;
3006;SDS011;1513;47.650;10.720;2022-07-17T16:44:29;8.00;;;4.07;;
3006;SDS011;1513;47.650;10.720;2022-07-17T16:47:33;3.77;;;3.47;;
3006;SDS011;1513;47.650;10.720;2022-07-17T16:50:36;3.73;;;3.27;;
3006;SDS011;1513;47.650;10.720;2022-07-17T16:53:40;3.17;;;2.90;;
3006;SDS011;1513;47.650;10.720;2022-07-17T16:56:43;3.40;;;3.10;;
3006;SDS011;1513;47.650;10.720;2022-07-17T16:59:47;4.20;;;3.50;;
3006;SDS011;1513;47.650;10.720;2022-07-17T17:02:50;3.80;;;3.50;;
3006;SDS011;1513;47.650;10.720;2022-07-17T17:05:54;3.50;;;3.20;;
3006;SDS011;1513;47.650;10.720;2022-07-17T17:08:58;9.20;;;3.20;;
3006;SDS011;1513;47.650;10.720;2022-07-17T17:12:02;7.40;;;3.27;;
3006;SDS011;1513;47.650;10.720;2022-07-17T17:15:06;3.50;;;3.20;;
3006;SDS011;1513;47.650;10.720;2022-07-17T17:18:10;3.97;;;3.57;;
3006;SDS011;1513;47.650;10.720;2022-07-17T17:21:15;5.70;;;4.03;;
3006;SDS011;1513;47.650;10.720;2022-07-17T17:24:24;4.00;;;3.70;;
3006;SDS011;1513;47.650;10.720;2022-07-17T17:27:27;4.10;;;3.40;;
3006;SDS011;1513;47.650;10.720;2022-07-17T17:30:31;7.07;;;3.27;;
3006;SDS011;1513;47.650;10.720;2022-07-17T17:33:34;3.20;;;3.00;;
3006;SDS011;1513;47.650;10.720;2022-07-17T17:36:38;4.33;;;3.47;;
3006;SDS011;1513;47.650;10.720;2022-07-17T17:39:41;4.17;;;3.77;;
3006;SDS011;1513;47.650;10.720;2022-07-17T17:42:45;3.30;;;3.10;;
3006;SDS011;1513;47.650;10.720;2022-07-17T17:45:50;3.57;;;3.23;;
3006;SDS011;1513;47.650;10.720;2022-07-17T17:48:55;9.70;;;3.83;;
3006;SDS011;1513;47.650;10.720;2022-07-17T17:51:59;4.03;;;3.57;;
3006;SDS011;1513;47.650;10.720;2022-07-17T17:55:03;4.37;;;4.07;;
3006;SDS011;1513;47.650;10.720;2022-07-17T17:58:09;4.60;;;3.33;;
3006;SDS011;1513;47.650;10.720;2022-07-17T18:01:13;5.30;;;3.20;;
3006;SDS011;1513;47.650;10.720;2022-07-17T18:04:17;3.63;;;3.33;;
3006;SDS011;1513;47.650;10.720;2022-07-17T18:07:20;4.20;;;3.53;;
3006;SDS011;1513;47.650;10.720;2022-07-17T18:10:24;3.20;;;2.97;;
3006;SDS011;1513;47.650;10.720;2022-07-17T18:13:27;4.90;;;3.33;;
3006;SDS011;1513;47.650;10.720;2022-07-17T18:16:33;4.10;;;3.70;;
3006;SDS011;1513;47.650;10.720;2022-07-17T18:19:36;7.83;;;3.70;;
3006;SDS011;1513;47.650;10.720;2022-07-17T18:22:40;5.23;;;3.20;;
3006;SDS011;1513;47.650;10.720;2022-07-17T18:25:43;4.60;;;3.30;;
3006;SDS011;1513;47.650;10.720;2022-07-17T18:28:47;4.33;;;3.93;;
3006;SDS011;1513;47.650;10.720;2022-07-17T18:31:51;4.10;;;3.60;;
3006;SDS011;1513;47.650;10.720;2022-07-17T18:34:55;4.17;;;3.00;;
3006;SDS011;1513;47.650;10.720;2022-07-17T18:37:59;5.90;;;3.80;;
3006;SDS011;1513;47.650;10.720;2022-07-17T18:41:02;3.93;;;3.53;;
3006;SDS011;1513;47.650;10.720;2022-07-17T18:44:07;4.20;;;3.53;;
3006;SDS011;1513;47.650;10.720;2022-07-17T18:47:12;3.90;;;3.60;;